Flinterduin — PEBT — position and weather

sailwx.info

Track history (hours):
 
Tides and Currents Weather Stations Pressure Air Temp Water Temp Dewpoint Dewpoint Depression Visibility Wind Speed Wind Dir Waves Ship Positions

Flinterduin

Last reported at 2015-Jul-03 16:08 UTC. Time now 2015-Jul-04 19:00 UTC.
Position N 40°50' E 029°13'.

Length 112 m; beam 15 m.

Type: Cargo ship. MMSI: 246484000.

Date/timePositionNaut miles runAvg speedWind from/ knotsBaromVisibWave heightAir tempDewpointWater temp
2015-Jul-03 16:08N 40°50' E 029°13'0 0.1
2015-Jul-03 15:20N 40°50' E 029°13'0 0.0
2015-Jul-03 14:32N 40°50' E 029°13'0 0.0
2015-Jul-03 13:26N 40°50' E 029°13'0 0.0
2015-Jul-03 12:32N 40°50' E 029°13'0 0.0
2015-Jul-03 11:32N 40°50' E 029°13'0 0.0
2015-Jul-03 10:32N 40°50' E 029°13'0 0.1
2015-Jul-03 09:32N 40°50' E 029°13'0 0.0
2015-Jul-03 08:32N 40°50' E 029°13'0 0.0
2015-Jul-03 07:32N 40°50' E 029°13'0 0.0
2015-Jul-03 06:32N 40°50' E 029°13'0 0.1
2015-Jul-03 05:32N 40°50' E 029°13'0 0.1
2015-Jul-03 04:32N 40°50' E 029°13'0 0.0
2015-Jul-03 03:32N 40°50' E 029°13'0 0.1
2015-Jul-03 02:20N 40°50' E 029°13'0 0.1
2015-Jul-03 01:32N 40°50' E 029°13'0 0.1
2015-Jul-03 00:32N 40°50' E 029°13'0 0.0
2015-Jul-02 23:32N 40°50' E 029°13'0 0.0
2015-Jul-02 22:31N 40°50' E 029°13'0 0.0
2015-Jul-02 21:31N 40°50' E 029°13'0 0.0
2015-Jul-02 20:31N 40°50' E 029°13'0 0.0
2015-Jul-02 19:25N 40°50' E 029°13'0 0.0
2015-Jul-02 18:31N 40°50' E 029°13'0 0.0
2015-Jul-02 17:31N 40°50' E 029°13'0 0.0
2015-Jul-02 16:25N 40°50' E 029°13'0 0.0
2015-Jul-02 15:19N 40°50' E 029°13'0 0.0
2015-Jul-02 14:19N 40°50' E 029°13'0 0.1
2015-Jul-02 13:33N 40°50' E 029°13'4 4.4
2015-Jul-02 12:33N 40°49' E 029°08'9 9.0
2015-Jul-02 11:31N 40°50' E 028°56'328 9.1
2015-Jun-30 23:28N 37°00' E 023°55'379 9.9
2015-Jun-29 09:16N 37°47' E 016°02'810.6
2015-Jun-29 08:32N 37°49' E 015°52'1010.2
2015-Jun-29 07:33N 37°53' E 015°41'10 9.9
2015-Jun-29 06:34N 38°01' E 015°35'1010.0
2015-Jun-29 05:33N 38°11' E 015°36'9 8.6
2015-Jun-29 04:33N 38°20' E 015°37'9 8.9
2015-Jun-29 03:33N 38°26' E 015°30'9 8.9
2015-Jun-29 02:33N 38°33' E 015°22'10 9.8
2015-Jun-29 01:32N 38°40' E 015°13'10 9.9
2015-Jun-29 00:33N 38°47' E 015°05'1010.1
2015-Jun-28 23:33N 38°54' E 014°55'43 9.6
2015-Jun-28 19:08N 39°25' E 014°17'5 9.4
2015-Jun-28 18:33N 39°29' E 014°12'10 9.7
2015-Jun-28 17:32N 39°36' E 014°04'10 9.8
2015-Jun-28 16:33N 39°43' E 013°55'10 9.8
2015-Jun-28 15:33N 39°50' E 013°46'10 9.5
2015-Jun-28 14:33N 39°56' E 013°37'9 9.2
2015-Jun-28 13:33N 40°03' E 013°28'8 5.4
2015-Jun-28 12:00N 40°06' E 013°18'3112.6 999 / 11017.2 5.4 27.216.6
2015-Jun-28 09:31N 40°31' E 012°53'1010.1
2015-Jun-28 08:33N 40°38' E 012°44'1110.3
2015-Jun-28 07:30N 40°46' E 012°34'2110.3
2015-Jun-28 05:30N 41°01' E 012°16'7410.1
2015-Jun-27 22:12N 41°55' E 011°09'710.0
2015-Jun-27 21:33N 42°00' E 011°03'1210.1
2015-Jun-27 20:19N 42°09' E 010°52'810.7
2015-Jun-27 19:33N 42°16' E 010°45'1010.4
2015-Jun-27 18:34N 42°26' E 010°41'1111.2
2015-Jun-27 17:34N 42°37' E 010°38'1111.5
2015-Jun-27 16:34N 42°48' E 010°35'8 2.0
2015-Jun-27 12:26N 42°56' E 010°33'0 0.0
2015-Jun-27 11:19N 42°56' E 010°33'0 0.0
2015-Jun-27 10:19N 42°56' E 010°33'0 0.0
2015-Jun-27 09:31N 42°56' E 010°33'0 0.0
2015-Jun-27 08:31N 42°56' E 010°33'0 0.0
2015-Jun-27 07:31N 42°56' E 010°33'0 0.0
2015-Jun-26 16:22N 42°56' E 010°33'0 0.0
2015-Jun-26 01:28N 42°56' E 010°33'0 0.0
2015-Jun-25 21:12N 42°56' E 010°33'2 0.2
2015-Jun-25 13:33N 42°55' E 010°34'1 1.2
2015-Jun-25 12:32N 42°54' E 010°35'0 0.0
2015-Jun-25 11:29N 42°54' E 010°35'0 0.0
2015-Jun-25 06:32N 42°54' E 010°35'0 0.0
2015-Jun-25 05:26N 42°54' E 010°35'0 0.0
2015-Jun-25 04:29N 42°54' E 010°35'1 0.9
2015-Jun-25 03:33N 42°53' E 010°35'6 6.2
2015-Jun-25 02:32N 42°47' E 010°34'8 7.3
2015-Jun-25 01:26N 42°39' E 010°32'6 7.1
2015-Jun-25 00:33N 42°32' E 010°31'28 6.4
2015-Jun-24 20:06N 42°06' E 010°16'6 6.8
2015-Jun-24 19:15N 42°02' E 010°11'5 7.1
2015-Jun-24 18:33N 41°58' E 010°06'7 7.2
2015-Jun-24 17:33N 41°53' E 010°00'128 9.1
2015-Jun-24 03:27N 40°52' E 007°29'8712.1
2015-Jun-23 20:17N 40°07' E 005°51'  
Track history (hours):
 
Tides and Currents Weather Stations Pressure Air Temp Water Temp Dewpoint Dewpoint Depression Visibility Wind Speed Wind Dir Waves Ship Positions

Flinterduin

Last reported at 2015-Jul-03 16:08 UTC. Time now 2015-Jul-04 19:00 UTC.
Position N 40°50' E 029°13'.

Length 112 m; beam 15 m.

Type: Cargo ship. MMSI: 246484000.

Date/timePositionNaut miles runAvg speedWind from/ knotsBaromVisibWave heightAir tempDewpointWater temp
2015-Jul-03 16:08N 40°50' E 029°13'0 0.1
2015-Jul-03 15:20N 40°50' E 029°13'0 0.0
2015-Jul-03 14:32N 40°50' E 029°13'0 0.0
2015-Jul-03 13:26N 40°50' E 029°13'0 0.0
2015-Jul-03 12:32N 40°50' E 029°13'0 0.0
2015-Jul-03 11:32N 40°50' E 029°13'0 0.0
2015-Jul-03 10:32N 40°50' E 029°13'0 0.1
2015-Jul-03 09:32N 40°50' E 029°13'0 0.0
2015-Jul-03 08:32N 40°50' E 029°13'0 0.0
2015-Jul-03 07:32N 40°50' E 029°13'0 0.0
2015-Jul-03 06:32N 40°50' E 029°13'0 0.1
2015-Jul-03 05:32N 40°50' E 029°13'0 0.1
2015-Jul-03 04:32N 40°50' E 029°13'0 0.0
2015-Jul-03 03:32N 40°50' E 029°13'0 0.1
2015-Jul-03 02:20N 40°50' E 029°13'0 0.1
2015-Jul-03 01:32N 40°50' E 029°13'0 0.1
2015-Jul-03 00:32N 40°50' E 029°13'0 0.0
2015-Jul-02 23:32N 40°50' E 029°13'0 0.0
2015-Jul-02 22:31N 40°50' E 029°13'0 0.0
2015-Jul-02 21:31N 40°50' E 029°13'0 0.0
2015-Jul-02 20:31N 40°50' E 029°13'0 0.0
2015-Jul-02 19:25N 40°50' E 029°13'0 0.0
2015-Jul-02 18:31N 40°50' E 029°13'0 0.0
2015-Jul-02 17:31N 40°50' E 029°13'0 0.0
2015-Jul-02 16:25N 40°50' E 029°13'0 0.0
2015-Jul-02 15:19N 40°50' E 029°13'0 0.0
2015-Jul-02 14:19N 40°50' E 029°13'0 0.1
2015-Jul-02 13:33N 40°50' E 029°13'4 4.4
2015-Jul-02 12:33N 40°49' E 029°08'9 9.0
2015-Jul-02 11:31N 40°50' E 028°56'328 9.1
2015-Jun-30 23:28N 37°00' E 023°55'379 9.9
2015-Jun-29 09:16N 37°47' E 016°02'810.6
2015-Jun-29 08:32N 37°49' E 015°52'1010.2
2015-Jun-29 07:33N 37°53' E 015°41'10 9.9
2015-Jun-29 06:34N 38°01' E 015°35'1010.0
2015-Jun-29 05:33N 38°11' E 015°36'9 8.6
2015-Jun-29 04:33N 38°20' E 015°37'9 8.9
2015-Jun-29 03:33N 38°26' E 015°30'9 8.9
2015-Jun-29 02:33N 38°33' E 015°22'10 9.8
2015-Jun-29 01:32N 38°40' E 015°13'10 9.9
2015-Jun-29 00:33N 38°47' E 015°05'1010.1
2015-Jun-28 23:33N 38°54' E 014°55'43 9.6
2015-Jun-28 19:08N 39°25' E 014°17'5 9.4
2015-Jun-28 18:33N 39°29' E 014°12'10 9.7
2015-Jun-28 17:32N 39°36' E 014°04'10 9.8
2015-Jun-28 16:33N 39°43' E 013°55'10 9.8
2015-Jun-28 15:33N 39°50' E 013°46'10 9.5
2015-Jun-28 14:33N 39°56' E 013°37'9 9.2
2015-Jun-28 13:33N 40°03' E 013°28'8 5.4
2015-Jun-28 12:00N 40°06' E 013°18'3112.6 999 / 11017.2 5.4 27.216.6
2015-Jun-28 09:31N 40°31' E 012°53'1010.1
2015-Jun-28 08:33N 40°38' E 012°44'1110.3
2015-Jun-28 07:30N 40°46' E 012°34'2110.3
2015-Jun-28 05:30N 41°01' E 012°16'7410.1
2015-Jun-27 22:12N 41°55' E 011°09'710.0
2015-Jun-27 21:33N 42°00' E 011°03'1210.1
2015-Jun-27 20:19N 42°09' E 010°52'810.7
2015-Jun-27 19:33N 42°16' E 010°45'1010.4
2015-Jun-27 18:34N 42°26' E 010°41'1111.2
2015-Jun-27 17:34N 42°37' E 010°38'1111.5
2015-Jun-27 16:34N 42°48' E 010°35'8 2.0
2015-Jun-27 12:26N 42°56' E 010°33'0 0.0
2015-Jun-27 11:19N 42°56' E 010°33'0 0.0
2015-Jun-27 10:19N 42°56' E 010°33'0 0.0
2015-Jun-27 09:31N 42°56' E 010°33'0 0.0
2015-Jun-27 08:31N 42°56' E 010°33'0 0.0
2015-Jun-27 07:31N 42°56' E 010°33'0 0.0
2015-Jun-26 16:22N 42°56' E 010°33'0 0.0
2015-Jun-26 01:28N 42°56' E 010°33'0 0.0
2015-Jun-25 21:12N 42°56' E 010°33'2 0.2
2015-Jun-25 13:33N 42°55' E 010°34'1 1.2
2015-Jun-25 12:32N 42°54' E 010°35'0 0.0
2015-Jun-25 11:29N 42°54' E 010°35'0 0.0
2015-Jun-25 06:32N 42°54' E 010°35'0 0.0
2015-Jun-25 05:26N 42°54' E 010°35'0 0.0
2015-Jun-25 04:29N 42°54' E 010°35'1 0.9
2015-Jun-25 03:33N 42°53' E 010°35'6 6.2
2015-Jun-25 02:32N 42°47' E 010°34'8 7.3
2015-Jun-25 01:26N 42°39' E 010°32'6 7.1
2015-Jun-25 00:33N 42°32' E 010°31'28 6.4
2015-Jun-24 20:06N 42°06' E 010°16'6 6.8
2015-Jun-24 19:15N 42°02' E 010°11'5 7.1
2015-Jun-24 18:33N 41°58' E 010°06'7 7.2
2015-Jun-24 17:33N 41°53' E 010°00'128 9.1
2015-Jun-24 03:27N 40°52' E 007°29'8712.1
2015-Jun-23 20:17N 40°07' E 005°51'  

Dump ship's entire track history